Timeline UpdatesTrip UpdatesNews PostsPvt PostsTravel TipsAdmin PostsConv PostsFollowed PostsChat RequestsBlog PostsPNR Posts

Disclaimer
Search
 
 
Sun Apr 20, 2014 09:12:36 ISTHomeTrainsΣChainsAtlasPNRForumGalleryNewsFAQTripsMembersLoginFeedback
No Recent News for this Train
Other Trains in the News **new
Latest...
T.No. 17479 Puri-Tirupati Express is cancelled today i.e., on 24th October 2013 between Puri and Palasa.2013.
Thu Oct 24, 2013 (04:33PM)
⇐ Return Journey: Train# 17480

17479/Puri-Tirupati Express

Jul 03 2013 (9:25AM)
Change Departure Station:
Change Arrival Station:
Post a Train Travel TipPost a Train Travel Tip **new
Post a Comment/Question/Picture/VideoPost a Comment/Question/Picture/Video
Inaugural Run
Wed Jan 01, 1992
Pantry/Catering
✕ NO Pantry Car
✕ NO Catering
Loco/Rake Reversals
VSKP/Visakhapatnam Junction (8); KUR/Khurda Road Junction (7);
RSA - Rake Sharing
Rake/Coach Composition
Entry# 194081 Author: νιηαy దత్త 1:; SLRD(For Disabled + Ladies Only) - UR - UR - S1 - S2 - S3 - S4 - S5 - B1 - UR - UR - UR - SLR(Ladies Only)
Loco
Official Loco:- PURI/KUR - VSKP:- WAM-4 VSKP - RJY:- WAM-4/WAP-1 RJY - BZA:-...
Read more...
WDM-2A/WDM-3A BZA - TPTY:- WAM-4/WAP-1
News    PNR    Forum    Time-Table    Availability    Fare Chart    Map    Arr/Dep History    Trips    Gallery    ΣChains    X/O    Timeline    
Travel Time: 2h 36m    7 halts    Distance: 115 km    Avg Speed: 44 km/hr
Type: Mail/Express
Zone: SCR/South Central
Departs @ 12:25 (Avg 4m late)
Platform# 9
SM WTF 
Puri/PURI 
Arrives @ 15:01 (Avg 23m late)
Platform# ???
SM WTF 
Balugaon/BALU 

7 halts. 22 intermediate Stations between Puri and Balugaon

Show ALL intermediate Stations  Show Old Time-Table

#CodeStation NameX/OArrivesAvgDepartsAvgHaltPFDay#KmSpeedElevZoneAddress
1PURI»Puri (5)»  -12:25+4910.04912mECoRPuri, Odisha
2SILSakhi Gopal (3)  12:45+1012:46+111m--116.44210mECoRPuri, Odisha
3KURKhurda Road Junction (7)X13:25+813:50+1425m--143.97625mECoRKhordha, Odisha
4NKPNirakarpurX  14:11+1914:12+201m--170.35321mECoRNirakarpur, Odisha
5BSDPBhusandpur  14:20+1914:21+211m--177.46620mECoRBhushandapur, Odisha
6KAPGKalupara GhatX  14:30+2114:31+211m--187.35810mECoRChandeswar, Odisha
7KUUKuhuri  14:38+2114:39+221m--194.06026mECoRKhordha, Odisha
8GNGDGangadharpur  14:47+2114:48+231m--1102.06022mECoRKhordha, Odisha
9BALU•Balugaon (3)•X  15:01+2315:02+251m--1115.06211mECoR752030, Odisha
10CLKAChilka  15:09+2515:10+251m--1122.27525mECoRBarkul, Odisha
11KITKhallikot (3)X  15:18+2515:19+261m--1132.26713mECoRKhallikot, Odisha
12RBARambha  15:29+2515:30+251m--1143.48014mECoRGanjam District, Odisha
13GAMGanjamX  15:43+2715:44+281m--1160.7538mECoRGanjam, Odisha
14CAPChatrapur  15:54+2815:55+301m--1169.66436mECoRChatrapur, Odisha
15BAMBrahmapur (3)  16:15+2916:20+295m31191.06727mECoRBerhampur, Odisha
16IPMIchchapuram  16:42+2816:43+291m--1215.56021mECoRIchchapuram, Andhra Pradesh
17SPTSompeta (4)X  17:01+2717:02+291m--1233.58748mECoRKanchili, Andhra Pradesh
18MMSMandasa Road  17:15+1417:16+141m11252.31138mECoRSrikakulam, Andhra Pradesh
19PSAPalasa (3)X  18:25+118:30+25m--1265.46731mECoRKasibugga, Andhra Pradesh
20PUNPundi  18:41+918:42+101m--1277.66238mECoRSrikakulam, Andhra Pradesh
21NWPNaupada Junction  18:55+818:56+101m--1291.17513mECoRNuapada . ph.no. 08945-249728, Andhra Pradesh
22KBMKotabommali  19:07+919:08+111m--1304.97513mECoRSrikakulam, Andhra Pradesh
23TIUTilaru (4)  19:19+1019:20+121m--1318.65950mECoRSrikakulam District, Andhra Pradesh
24CHESrikakulam Road (4)X  19:40+819:45+75m--1338.44334mECoRsrikakulam road ph .no. 08942-287222, Andhra Pradesh
25DUSIDusi  19:54+619:55+81m--1344.85928mECoRSrikakulam, Andhra Pradesh
26PDUPonduru  20:04+720:05+91m--1353.76739mECoRSrikakulam, Andhra Pradesh
27SGDMSigadam  20:14+1020:15+121m--1363.77267mECoRSrikakulam, Andhra Pradesh
28CPPChipurupalleX  20:26+1220:27+211m--1377.04499mECoRCheepurupalli, Andhra Pradesh
29GVIGarividi  20:36+1820:37+211m--1383.62892mECoRGarividi Railway Station Rd, Andhra Pradesh
30VZMVizianagaram Junction (5)  21:30+121:35+35m--1407.96863mECoRVizianagaram ph.no 08922-225510, Andhra Pradesh
31KTVKottavalasa Junction (5)O  22:06+622:07+71m--1442.96458mECoRVizianagaram District, Andhra Pradesh
32SCMSimhachalam (2)XO  22:24+022:25+11m--1460.9927mECoRVisakhapatnam, Andhra Pradesh
33VSKPVisakhapatnam Junction (8)X23:20-123:40+520m21469.03411mECoRVishakhapatnam 530001, Andhra Pradesh
34DVDDuvvada (4)X  00:09+900:10+111m12485.45346mECoRVishakhapatnam District, Andhra Pradesh
35AKPAnakapalle (3)  00:28+1700:29+171m22501.45930mSCRAnakapalle ph.no . 08924-221698, Andhra Pradesh
36YLMElamanchili (2)  00:53+1500:54+161m--2525.110423mSCRVisakhapatnam District, Andhra Pradesh
37TUNITuni (2)  01:17+2501:18+261m12565.17124mSCRTuni ph.no. 08854-252172, Andhra Pradesh
38ANVAnnavaram (3)X  01:32+2701:33+281m12581.88327mSCREast Godavari District, Andhra Pradesh
39PAPPithapuram (2)X  01:51+3101:52+311m--2606.65622mSCREast Godavari District, Andhra Pradesh
40SLOSamalkot Junction (3)X  02:05+3002:06+311m32618.78418mSCRKakinada ph.no.0884-2328824, Andhra Pradesh
41APTAnaparti (3)X  02:25+3202:26+321m--2645.24521mSCREast Godavari District, Andhra Pradesh
42DWPDwarapudi (3)  02:31+3302:32+331m--2648.93120mSCREast Godavari District, Andhra Pradesh
43RJYRajahmundry (3)X03:10+2603:25+3115m12668.83623mSCRRajahmundry ph.no. 0883-2420541, Andhra Pradesh
44KVRKovvur (3)  03:38+3403:39+341m32676.74325mSCRWest Godavari, Andhra Pradesh
45NDDNidadavolu Junction (3)  03:59+3104:00+321m22691.05420mSCRNidadavolu jtn ph.no. 08813-210325, Andhra Pradesh
46TNKUTanuku (2)  04:19+3504:20+361m--2708.14512mSCR131, Andhra Pradesh
47ALAttili (1)  04:34+3604:35+361m12718.74614mSCRWest Godavari, Andhra Pradesh
48BVRTBhimavaram Town (2)  05:01+3305:02+361m12738.5488mSCRBhimavaram, Andhra Pradesh
49AKVDAkividu (3)X  05:24+3705:25+411m--2756.2485mSCRCoast Andhra, Andhra Pradesh
50KKLRKaikaluru (2)X  05:46+4705:47+481m--2772.8348mSCRKaikalur, Andhra Pradesh
51GDVGudivada Junction (3)X  06:39+4106:40+431m--2802.13211mSCRKrishna District, Andhra Pradesh
52BZAVijayawada Junction (10)X  08:00+3308:20+3420m12845.35624mSCRVijayawada 520001, Andhra Pradesh
53DIGDuggirala (2)  08:43+4108:44+451m--2866.96516mSCRDuggirala, Andhra Pradesh
54TELTenali Junction (5)  08:53+4608:54+481m32876.66616mSCRTel: 08644-227834, Andhra Pradesh
55NDONidubrolu (3)X  09:14+5009:15+521m--2898.6659mSCRNidubrolu, Andhra Pradesh
56BPPBapatla (3)  09:34+5509:35+551m22919.27510mSCRBapatla, Andhra Pradesh
57CLXChirala (4)X  09:47+5709:48+591m--2934.2528mSCRChirala, Andhra Pradesh
58VTMVetapalem (3)  09:57+1:0009:58+1:021m--2942.1688mSCRVetapalem, Andhra Pradesh
59CJMChinnaganjam (3)X  10:09+1:0310:10+1:051m--2954.5659mSCRChinna Ganjam, Andhra Pradesh
60ANBAmmanabrolu (3)  10:23+1:0710:24+1:081m--2968.74516mSCRAmmanabrolu, Andhra Pradesh
61OGLOngole (3)XO  10:44+1:0410:45+1:081m32983.66212mSCROngole ph.no . 08592-280202, Andhra Pradesh
62TNRTanguturu (2)  11:03+1:1011:04+1:101m--21002.27210mSCRTanguturu, Andhra Pradesh
63SKMSingarayakonda (3)  11:12+1:1111:13+1:111m321011.86326mSCRSingarayakonda, Andhra Pradesh
64KVZKavali (4)XO  11:49+5411:50+541m221049.67021mSCRKavali, Andhra Pradesh
65BTTRBitragunta (2)  12:04+5412:05+541m221066.07615mSCRBitragunta, Andhra Pradesh
66NLRNellore (4)X  12:32+2412:33+221m221100.32721mSCRNellore, Andhra Pradesh
67GDRGudur Junction (3)X  14:00+314:05+25m121138.86819mSCRGudur, Andhra Pradesh
68VDDVendodu (2)X  14:22+3114:23+331m--21158.07655mSCRNellore, Andhra Pradesh
69VKIVenkatagiri (3)X  14:36+3314:37+341m221174.66177mSCRNellore District, Andhra Pradesh
70KHTSri Kalahasti (2)  15:01+3215:02+331m121199.03068mSCRChittoor District, Andhra Pradesh
71RURenigunta Junction (5)  15:48+1915:50+202m--21222.213113mSCRChittoor District, Andhra Pradesh
72TPTYTirupati Main (5)  16:35+8-421232.1-150mSCRChittoor Distt, Andhra Pradesh
Scroll to Top
Scroll to Bottom